Time;durP1;ratioP1;P1;durP2;ratioP2;P2;SDS_P1;SDS_P2;PMS_P1;PMS_P2;Temp;Humidity;BMP_temperature;BMP_pressure;BME280_temperature;BME280_humidity;BME280_pressure;Samples;Min_cycle;Max_cycle;Signal;HPM_P1;HPM_P2
2023/01/26 00:01:26;;;;;;;10.10;6.80;;;;;;;14.72;50.15;100989.91;5071361;28;20071;-52
2023/01/26 00:03:55;;;;;;;11.27;7.40;;;;;;;14.70;50.02;100989.16;5072506;28;20098;-51
2023/01/26 00:06:24;;;;;;;9.57;6.53;;;;;;;14.66;50.12;100990.28;5072489;28;20409;-52
2023/01/26 00:08:54;;;;;;;9.85;6.55;;;;;;;14.62;49.97;100983.41;5072520;28;20044;-51
2023/01/26 00:11:26;;;;;;;10.68;6.80;;;;;;;14.60;50.14;100986.19;5072432;28;20049;-51
2023/01/26 00:13:58;;;;;;;8.63;6.50;;;;;;;14.56;50.13;100978.44;5072236;28;20052;-52
2023/01/26 00:16:27;;;;;;;9.55;6.72;;;;;;;14.52;50.15;100975.09;5072244;28;20285;-55
2023/01/26 00:18:56;;;;;;;11.18;6.88;;;;;;;14.52;49.95;100979.59;5072148;28;20080;-53
2023/01/26 00:21:25;;;;;;;9.23;6.72;;;;;;;14.49;50.27;100971.75;5071993;28;20610;-52
2023/01/26 00:23:53;;;;;;;11.00;7.05;;;;;;;14.46;50.23;100985.34;5072120;28;20045;-53
2023/01/26 00:26:24;;;;;;;10.23;6.80;;;;;;;14.44;50.23;100977.38;5072040;28;20048;-55
2023/01/26 00:28:53;;;;;;;9.05;6.55;;;;;;;14.41;50.28;100966.84;5071865;28;20091;-53
2023/01/26 00:31:23;;;;;;;10.73;7.00;;;;;;;14.41;50.19;100968.69;5071881;28;20040;-52
2023/01/26 00:33:52;;;;;;;10.65;6.95;;;;;;;14.36;50.23;100966.28;5072072;28;20166;-58
2023/01/26 00:36:20;;;;;;;9.95;6.50;;;;;;;14.34;50.22;100978.94;5071919;28;20115;-54
2023/01/26 00:38:49;;;;;;;11.45;7.47;;;;;;;14.31;50.10;100974.63;5071830;28;20559;-51
2023/01/26 00:44:04;;;;;;;10.48;7.18;;;;;;;14.27;50.07;100965.03;5071782;28;20509;-51
2023/01/26 00:46:32;;;;;;;10.27;6.82;;;;;;;14.24;50.21;100973.28;5071821;28;20048;-54
2023/01/26 00:49:01;;;;;;;10.15;6.82;;;;;;;14.22;50.10;100969.84;5071543;28;20050;-52
2023/01/26 00:51:29;;;;;;;11.48;7.75;;;;;;;14.20;50.13;100965.56;5071662;28;20083;-54
2023/01/26 00:53:57;;;;;;;10.52;6.57;;;;;;;14.17;50.27;100961.22;5071825;28;20066;-52
2023/01/26 00:56:26;;;;;;;11.90;7.50;;;;;;;14.15;50.23;100963.16;5071480;28;20497;-52
2023/01/26 00:58:55;;;;;;;10.98;7.18;;;;;;;14.13;50.32;100965.06;5071668;28;20455;-52
2023/01/26 01:01:26;;;;;;;10.82;6.68;;;;;;;14.12;50.32;100957.13;5071504;28;20052;-52
2023/01/26 01:03:55;;;;;;;9.45;6.90;;;;;;;14.08;50.30;100961.81;5071630;28;20049;-53
2023/01/26 01:06:23;;;;;;;10.45;6.85;;;;;;;14.07;50.39;100959.22;5071594;28;20071;-52
2023/01/26 01:08:51;;;;;;;9.20;6.60;;;;;;;14.05;50.34;100956.66;5071479;28;20064;-52
2023/01/26 01:11:19;;;;;;;9.95;6.68;;;;;;;13.99;50.26;100951.66;5071570;28;20044;-54
2023/01/26 01:13:47;;;;;;;11.23;7.18;;;;;;;14.00;50.30;100958.78;5071512;28;20048;-52
2023/01/26 01:16:16;;;;;;;10.48;7.03;;;;;;;13.98;50.41;100966.03;5071520;28;20044;-52
2023/01/26 01:18:46;;;;;;;10.80;6.85;;;;;;;13.97;50.49;100961.63;5071455;28;20091;-52
2023/01/26 01:21:16;;;;;;;8.93;6.80;;;;;;;13.93;50.63;100949.38;5071344;28;20041;-51
2023/01/26 01:23:44;;;;;;;11.85;7.10;;;;;;;13.94;50.35;100953.78;5071435;28;20045;-51
2023/01/26 01:26:13;;;;;;;10.60;6.53;;;;;;;13.90;50.26;100947.78;5071435;28;20044;-53
2023/01/26 01:28:43;;;;;;;10.80;7.05;;;;;;;13.88;50.46;100948.78;5071202;28;20064;-53
2023/01/26 01:31:15;;;;;;;9.10;6.45;;;;;;;13.87;50.46;100947.06;5071355;28;20055;-52
2023/01/26 01:33:43;;;;;;;10.32;7.18;;;;;;;13.83;50.07;100938.38;5071366;28;20381;-52
2023/01/26 01:36:14;;;;;;;9.23;6.50;;;;;;;13.83;50.43;100935.69;5071207;28;20051;-53
2023/01/26 01:38:44;;;;;;;9.15;6.32;;;;;;;13.81;50.38;100942.13;5071263;28;20123;-52
2023/01/26 01:41:13;;;;;;;11.10;7.20;;;;;;;13.75;50.52;100922.75;5071128;28;20041;-54
2023/01/26 01:43:41;;;;;;;9.70;7.00;;;;;;;13.78;50.43;100936.94;5071237;28;20434;-54
2023/01/26 01:46:20;;;;;;;10.50;6.75;;;;;;;13.74;50.66;100931.78;5071251;28;20128;-54
2023/01/26 01:48:53;;;;;;;11.32;7.15;;;;;;;13.72;50.58;100933.69;5071176;28;20136;-54
2023/01/26 01:51:31;;;;;;;10.15;6.25;;;;;;;13.71;50.59;100931.97;5070811;28;20580;-54
2023/01/26 01:54:04;;;;;;;10.38;6.97;;;;;;;13.68;50.58;100926.78;5071113;28;20078;-54
2023/01/26 01:56:34;;;;;;;10.03;6.80;;;;;;;13.66;50.56;100928.69;5071181;28;20052;-51
2023/01/26 01:59:05;;;;;;;10.63;6.78;;;;;;;13.66;50.71;100923.34;5071104;28;20060;-53
2023/01/26 02:01:33;;;;;;;10.80;7.13;;;;;;;13.64;50.72;100919.91;5074519;28;20044;-52
2023/01/26 02:04:05;;;;;;;10.50;6.78;;;;;;;13.62;50.74;100919.13;5074914;28;20132;-54
2023/01/26 02:06:40;;;;;;;9.80;6.75;;;;;;;13.61;50.82;100912.06;5074945;28;20067;-53
2023/01/26 02:10:17;;;;;;;10.82;6.85;;;;;;;13.59;50.53;100913.94;5074793;28;20040;-53
2023/01/26 02:12:01;;;;;;;10.55;7.00;;;;;;;13.52;50.68;100893.88;5074623;28;20044;-54
2023/01/26 02:14:29;;;;;;;11.27;7.80;;;;;;;13.55;50.72;100896.34;5074722;28;20119;-53
2023/01/26 02:16:57;;;;;;;11.65;7.45;;;;;;;13.52;50.73;100893.88;5074590;28;20408;-52
2023/01/26 02:19:32;;;;;;;10.02;6.70;;;;;;;13.51;50.61;100897.50;5074652;28;20409;-52
2023/01/26 02:22:11;;;;;;;10.05;7.13;;;;;;;13.50;50.85;100903.78;5074354;28;20052;-54
2023/01/26 02:24:40;;;;;;;9.35;6.50;;;;;;;13.49;50.61;100890.50;5074515;28;20041;-52
2023/01/26 02:27:10;;;;;;;10.65;6.38;;;;;;;13.47;50.96;100885.22;5074245;28;20135;-53
2023/01/26 02:29:40;;;;;;;9.43;6.75;;;;;;;13.44;50.94;100880.94;5074423;28;20128;-52
2023/01/26 02:32:08;;;;;;;9.15;6.47;;;;;;;13.41;50.83;100873.09;5074293;28;20044;-54
2023/01/26 02:34:36;;;;;;;9.82;6.53;;;;;;;13.42;50.78;100871.28;5074210;28;20048;-51
2023/01/26 02:37:05;;;;;;;9.65;6.60;;;;;;;13.41;50.83;100874.88;5074265;28;20064;-54
2023/01/26 02:39:46;;;;;;;10.15;6.57;;;;;;;13.37;50.84;100868.88;5074316;28;20053;-55
2023/01/26 02:45:03;;;;;;;9.80;6.80;;;;;;;13.35;50.97;100862.75;5074112;28;20509;-52
2023/01/26 02:47:31;;;;;;;9.85;6.72;;;;;;;13.34;50.87;100862.84;5074049;28;20045;-55
2023/01/26 02:50:00;;;;;;;9.45;6.75;;;;;;;13.32;50.85;100851.38;5074241;28;20045;-54
2023/01/26 02:52:30;;;;;;;9.93;6.47;;;;;;;13.30;51.00;100856.78;5074072;28;20086;-55
2023/01/26 02:57:46;;;;;;;10.80;6.47;;;;;;;13.28;50.79;100849.81;5073895;28;20048;-53
2023/01/26 03:00:17;;;;;;;10.07;6.57;;;;;;;13.23;50.84;100844.75;5073952;28;20044;-55
2023/01/26 03:02:46;;;;;;;9.20;6.15;;;;;;;13.23;51.00;100836.72;5073741;28;20123;-53
2023/01/26 03:05:14;;;;;;;9.88;6.65;;;;;;;13.23;50.90;100838.53;5073761;28;20045;-52
2023/01/26 03:07:43;;;;;;;9.30;6.22;;;;;;;13.22;50.98;100837.69;5073679;28;20080;-54
2023/01/26 03:10:17;;;;;;;9.75;6.40;;;;;;;13.17;50.90;100824.53;5073573;28;20052;-52
2023/01/26 03:12:46;;;;;;;11.15;6.75;;;;;;;13.18;50.87;100836.97;5073667;28;20130;-55
2023/01/26 03:29:10;;;;;;;9.60;6.22;;;;;;;13.10;50.87;100825.84;5073075;28;20068;-54
2023/01/26 03:31:38;;;;;;;9.73;6.20;;;;;;;13.08;50.84;100817.06;5073301;28;20178;-54
2023/01/26 03:34:06;;;;;;;10.40;6.47;;;;;;;13.08;51.04;100818.88;5073081;28;20050;-53
2023/01/26 03:36:36;;;;;;;9.25;6.10;;;;;;;13.05;50.89;100816.41;5073291;28;20048;-52
2023/01/26 03:39:04;;;;;;;8.65;6.05;;;;;;;13.04;51.15;100812.84;5073187;28;20408;-53
2023/01/26 03:58:10;;;;;;;9.27;6.15;;;;;;;12.94;51.13;100789.41;5072594;28;20048;-53
2023/01/26 04:00:40;;;;;;;9.73;6.30;;;;;;;12.93;51.05;100790.34;5072887;28;20097;-54
2023/01/26 04:08:44;;;;;;;9.25;6.35;;;;;;;12.89;51.19;100790.53;5072314;28;20328;-54
2023/01/26 04:11:12;;;;;;;9.65;6.30;;;;;;;12.87;51.23;100783.56;5072417;28;20040;-52
2023/01/26 04:21:59;;;;;;;10.05;6.18;;;;;;;12.83;51.25;100774.84;5071919;28;20052;-52
2023/01/26 04:24:28;;;;;;;9.50;5.97;;;;;;;12.78;51.35;100770.75;5072025;28;20371;-52
2023/01/26 04:26:56;;;;;;;10.23;6.63;;;;;;;12.80;51.21;100775.03;5071989;28;20051;-54
2023/01/26 04:29:24;;;;;;;10.23;6.40;;;;;;;12.79;51.20;100770.66;5072070;28;20036;-54
2023/01/26 04:31:54;;;;;;;9.45;6.07;;;;;;;12.74;51.37;100756.69;5072048;28;20131;-54
2023/01/26 04:34:22;;;;;;;9.40;5.97;;;;;;;12.77;51.22;100766.34;5072153;28;20052;-53
2023/01/26 04:36:50;;;;;;;9.93;6.47;;;;;;;12.72;51.07;100763.06;5072125;28;20048;-51
2023/01/26 04:39:19;;;;;;;9.55;6.60;;;;;;;12.78;51.46;100776.97;5071979;28;20090;-54
2023/01/26 04:41:47;;;;;;;10.57;6.20;;;;;;;12.80;51.65;100766.16;5071891;28;20047;-54
2023/01/26 04:44:15;;;;;;;9.38;5.55;;;;;;;12.84;51.96;100762.34;5071903;28;20484;-53
2023/01/26 04:46:44;;;;;;;8.07;5.53;;;;;;;12.94;52.32;100773.34;5072076;28;20075;-54
2023/01/26 04:49:14;;;;;;;9.38;6.10;;;;;;;13.03;52.37;100762.94;5071713;28;20076;-53
2023/01/26 04:51:42;;;;;;;8.35;5.68;;;;;;;13.13;52.23;100768.56;5071794;28;20068;-54
2023/01/26 04:54:10;;;;;;;8.13;5.57;;;;;;;13.22;52.22;100762.69;5071824;28;20045;-54
2023/01/26 04:56:38;;;;;;;8.60;5.43;;;;;;;13.33;52.13;100762.00;5071552;28;20097;-52
2023/01/26 04:59:07;;;;;;;8.27;5.70;;;;;;;13.39;52.04;100756.22;5071714;28;20090;-53
2023/01/26 05:01:36;;;;;;;8.25;5.30;;;;;;;13.53;51.85;100758.03;5071606;28;20437;-53
2023/01/26 05:04:06;;;;;;;8.63;5.35;;;;;;;13.64;51.88;100763.56;5071621;28;20044;-54
2023/01/26 05:06:35;;;;;;;8.85;5.85;;;;;;;13.74;51.80;100757.50;5071528;28;20049;-51
2023/01/26 05:09:04;;;;;;;9.38;5.72;;;;;;;13.87;51.54;100759.38;5071600;28;20040;-53
2023/01/26 05:11:32;;;;;;;8.35;5.25;;;;;;;13.95;51.46;100757.91;5071607;28;20052;-53
2023/01/26 05:14:00;;;;;;;7.88;4.75;;;;;;;14.04;51.47;100761.81;5071469;28;20037;-54
2023/01/26 05:16:28;;;;;;;8.00;5.57;;;;;;;14.13;51.29;100753.16;5071437;28;20123;-54
2023/01/26 05:18:56;;;;;;;7.90;4.82;;;;;;;14.21;51.15;100753.50;5071578;28;20066;-53
2023/01/26 05:21:26;;;;;;;8.07;5.07;;;;;;;14.31;51.25;100753.72;5071491;28;20128;-54
2023/01/26 05:23:55;;;;;;;7.50;4.95;;;;;;;14.40;51.15;100758.47;5071377;28;20056;-55
2023/01/26 05:26:23;;;;;;;7.95;5.28;;;;;;;14.52;51.03;100751.44;5071736;28;20147;-52
2023/01/26 05:28:52;;;;;;;8.85;5.25;;;;;;;14.63;51.00;100758.75;5071271;28;20056;-52
2023/01/26 05:31:20;;;;;;;7.93;5.20;;;;;;;14.72;50.95;100758.97;5071257;28;20470;-52
2023/01/26 05:33:48;;;;;;;6.88;4.70;;;;;;;14.82;50.67;100754.69;5071416;28;20083;-53
2023/01/26 05:36:16;;;;;;;8.55;5.47;;;;;;;14.89;50.73;100758.66;5074650;28;20048;-52
2023/01/26 05:38:46;;;;;;;7.45;5.05;;;;;;;14.93;50.54;100755.75;5075182;28;20045;-53
2023/01/26 05:41:15;;;;;;;6.75;4.40;;;;;;;14.96;50.62;100763.59;5075276;28;20045;-53
2023/01/26 05:43:43;;;;;;;6.57;4.60;;;;;;;15.01;50.48;100766.81;5075094;28;20040;-53
2023/01/26 05:46:11;;;;;;;7.07;4.60;;;;;;;15.00;50.49;100757.91;5075296;28;20044;-53
2023/01/26 05:48:40;;;;;;;7.68;4.95;;;;;;;15.06;50.49;100767.38;5074856;28;20040;-53
2023/01/26 05:51:08;;;;;;;6.75;4.63;;;;;;;15.10;50.30;100766.16;5075054;28;20041;-53
2023/01/26 05:53:37;;;;;;;7.10;4.60;;;;;;;15.13;50.29;100765.94;5074947;28;20056;-53
2023/01/26 05:56:05;;;;;;;6.90;4.95;;;;;;;15.17;50.28;100768.31;5075094;28;20048;-51
2023/01/26 05:58:35;;;;;;;6.95;4.90;;;;;;;15.20;50.41;100764.56;5074912;28;20048;-53
2023/01/26 06:01:04;;;;;;;8.32;5.07;;;;;;;15.26;50.33;100764.13;5074823;28;20439;-54
2023/01/26 06:03:32;;;;;;;7.80;4.78;;;;;;;15.31;50.26;100771.84;5074423;28;20076;-51
2023/01/26 06:06:00;;;;;;;6.82;4.80;;;;;;;15.32;50.21;100766.34;5074715;28;20045;-51
2023/01/26 06:08:28;;;;;;;6.90;4.47;;;;;;;15.34;50.04;100763.53;5074788;28;20041;-51
2023/01/26 06:10:59;;;;;;;6.70;4.53;;;;;;;15.33;50.07;100764.53;5074681;28;20101;-51
2023/01/26 06:13:27;;;;;;;7.43;4.32;;;;;;;15.33;50.09;100764.53;5074781;28;20074;-52
2023/01/26 06:15:56;;;;;;;7.32;4.65;;;;;;;15.32;50.02;100762.81;5074580;28;20102;-52
2023/01/26 06:18:25;;;;;;;6.90;4.53;;;;;;;15.30;50.14;100759.38;5074306;28;20055;-50
2023/01/26 06:20:53;;;;;;;7.88;4.68;;;;;;;15.25;50.05;100757.03;5074552;28;20048;-53
2023/01/26 06:23:21;;;;;;;7.47;4.63;;;;;;;15.24;50.11;100757.97;5074250;28;20400;-51
2023/01/26 06:25:50;;;;;;;7.40;4.93;;;;;;;15.20;50.11;100769.91;5074273;28;20044;-52
2023/01/26 06:28:19;;;;;;;7.03;4.35;;;;;;;15.17;50.22;100764.78;5073274;28;20048;-55
2023/01/26 06:30:48;;;;;;;6.72;4.50;;;;;;;15.10;50.14;100760.81;5072889;28;20048;-53
2023/01/26 06:33:18;;;;;;;7.05;4.38;;;;;;;15.07;50.26;100758.34;5071674;28;20047;-52
2023/01/26 06:35:50;;;;;;;6.90;4.90;;;;;;;15.05;50.15;100765.63;5072959;28;20049;-53
2023/01/26 06:38:18;;;;;;;6.68;4.30;;;;;;;15.03;50.20;100756.81;5072687;28;20509;-54
2023/01/26 06:40:47;;;;;;;6.95;4.60;;;;;;;14.98;50.32;100761.69;5072836;28;20045;-51
2023/01/26 06:43:15;;;;;;;7.55;4.15;;;;;;;14.93;50.31;100758.44;5072690;28;20051;-51
2023/01/26 06:45:43;;;;;;;7.47;4.72;;;;;;;14.91;50.32;100757.69;5072390;28;20041;-53
2023/01/26 06:48:11;;;;;;;7.82;4.68;;;;;;;14.86;50.24;100755.31;5072530;28;20560;-53
2023/01/26 06:50:41;;;;;;;7.63;4.72;;;;;;;14.80;50.28;100751.25;5072820;28;20127;-52
2023/01/26 06:53:26;;;;;;;7.13;4.68;;;;;;;14.76;50.46;100744.34;5072685;28;20512;-53
2023/01/26 06:55:54;;;;;;;7.95;4.65;;;;;;;14.71;50.50;100742.97;5072563;28;20044;-55
2023/01/26 06:58:23;;;;;;;7.50;4.65;;;;;;;14.69;50.48;100742.22;5072772;28;20076;-53
2023/01/26 07:00:52;;;;;;;7.88;4.72;;;;;;;14.62;50.71;100741.78;5072591;28;20052;-52
2023/01/26 07:03:20;;;;;;;7.53;4.70;;;;;;;14.59;50.85;100742.00;5072453;28;20044;-55
2023/01/26 07:05:50;;;;;;;7.60;4.70;;;;;;;14.55;50.80;100737.78;5072355;28;20486;-53
2023/01/26 07:08:18;;;;;;;9.93;4.90;;;;;;;14.52;50.92;100748.75;5072448;28;20052;-54
2023/01/26 07:10:47;;;;;;;6.75;4.25;;;;;;;14.48;50.93;100749.94;5072422;28;20048;-53
2023/01/26 07:13:15;;;;;;;7.72;4.60;;;;;;;14.45;50.96;100747.44;5072209;28;20401;-54
2023/01/26 07:15:44;;;;;;;7.72;4.93;;;;;;;14.40;50.96;100738.84;5072345;28;20123;-55
2023/01/26 07:18:12;;;;;;;9.23;4.95;;;;;;;14.35;50.95;100732.91;5072291;28;20052;-53
2023/01/26 07:20:40;;;;;;;11.38;5.05;;;;;;;14.28;51.17;100730.66;5072323;28;20048;-52
2023/01/26 07:23:11;;;;;;;7.63;4.70;;;;;;;14.29;51.15;100740.44;5072087;28;20119;-52
2023/01/26 07:25:43;;;;;;;7.97;5.20;;;;;;;14.25;50.94;100738.03;5072106;28;20120;-52
2023/01/26 07:28:11;;;;;;;8.23;4.63;;;;;;;14.21;50.77;100742.75;5032372;28;1148408;-55
2023/01/26 07:30:40;;;;;;;6.15;4.20;;;;;;;14.19;50.70;100735.78;5073141;28;20076;-54
2023/01/26 07:33:08;;;;;;;8.05;4.95;;;;;;;14.14;50.88;100730.72;5072946;28;20123;-52
2023/01/26 07:35:37;;;;;;;6.88;4.25;;;;;;;14.12;50.86;100729.97;5072622;28;20052;-54
2023/01/26 07:38:05;;;;;;;9.18;4.75;;;;;;;14.11;51.15;100730.94;5072829;28;20040;-55
2023/01/26 07:40:36;;;;;;;9.60;5.00;;;;;;;14.09;51.31;100722.13;5072708;28;20066;-53
2023/01/26 07:43:04;;;;;;;7.95;4.30;;;;;;;14.15;51.24;100732.44;5071061;28;20048;-54
2023/01/26 07:45:33;;;;;;;6.57;4.30;;;;;;;14.20;51.22;100724.94;5070290;28;20134;-52
2023/01/26 07:48:01;;;;;;;7.20;4.65;;;;;;;14.28;51.33;100727.09;5071525;28;20071;-53
2023/01/26 07:50:31;;;;;;;7.47;4.28;;;;;;;14.36;51.17;100724.75;5071631;28;20167;-54
2023/01/26 07:53:00;;;;;;;6.95;4.03;;;;;;;14.41;51.42;100727.13;5072100;28;20062;-53
2023/01/26 07:55:28;;;;;;;7.57;4.07;;;;;;;14.51;51.19;100729.09;5072287;28;20079;-55
2023/01/26 07:57:58;;;;;;;8.82;4.60;;;;;;;14.61;51.05;100732.00;5071878;28;20487;-52
2023/01/26 08:00:26;;;;;;;7.03;4.18;;;;;;;14.71;51.06;100730.41;5072613;28;20451;-55
2023/01/26 08:02:55;;;;;;;6.53;4.20;;;;;;;14.78;51.19;100726.34;5072541;28;20048;-54
2023/01/26 08:05:23;;;;;;;9.13;5.28;;;;;;;14.84;51.13;100728.56;5072356;28;20490;-51
2023/01/26 08:07:51;;;;;;;7.72;4.05;;;;;;;14.89;51.13;100729.13;5072471;28;20467;-54
2023/01/26 08:10:20;;;;;;;8.68;4.50;;;;;;;14.93;51.14;100735.13;5072320;28;20072;-52
2023/01/26 08:12:48;;;;;;;6.50;4.32;;;;;;;14.92;51.23;100732.53;5072160;28;20406;-53
2023/01/26 08:15:17;;;;;;;7.15;3.85;;;;;;;14.93;51.08;100728.88;5072052;28;20041;-53
2023/01/26 08:17:45;;;;;;;7.20;4.53;;;;;;;14.95;51.25;100722.44;5072184;28;20046;-54
2023/01/26 08:20:13;;;;;;;7.00;4.70;;;;;;;14.94;51.38;100731.47;5072279;28;20048;-55
2023/01/26 08:22:42;;;;;;;8.45;4.47;;;;;;;14.92;51.35;100725.34;5072300;28;20049;-54
2023/01/26 08:25:10;;;;;;;6.53;3.97;;;;;;;14.89;51.25;100729.13;5071887;28;20060;-52
2023/01/26 08:27:38;;;;;;;8.25;4.50;;;;;;;14.88;51.29;100727.41;5071772;28;20052;-53
2023/01/26 08:30:09;;;;;;;6.95;4.05;;;;;;;14.86;51.27;100723.97;5071938;28;20041;-52
2023/01/26 08:32:39;;;;;;;7.35;4.38;;;;;;;14.85;51.50;100721.38;5071907;28;20127;-52
2023/01/26 08:35:08;;;;;;;8.40;4.15;;;;;;;14.80;51.55;100719.03;5071536;28;20094;-54
2023/01/26 08:37:36;;;;;;;8.30;4.60;;;;;;;14.77;51.47;100721.94;5071652;28;20126;-53
2023/01/26 08:40:05;;;;;;;7.18;4.43;;;;;;;14.75;51.60;100721.16;5071586;28;20123;-55
2023/01/26 08:42:35;;;;;;;9.07;4.10;;;;;;;14.71;51.83;100719.66;5071575;28;20048;-52
2023/01/26 08:45:03;;;;;;;6.80;4.28;;;;;;;14.71;51.78;100727.72;5071528;28;20113;-52
2023/01/26 08:47:31;;;;;;;6.85;4.20;;;;;;;14.67;51.88;100723.53;5071617;28;20072;-54
2023/01/26 08:50:01;;;;;;;8.05;4.60;;;;;;;14.64;51.73;100721.03;5071788;28;20060;-52
2023/01/26 08:52:29;;;;;;;7.93;4.75;;;;;;;14.60;51.80;100720.41;5071657;28;20045;-53
2023/01/26 08:54:57;;;;;;;10.25;4.53;;;;;;;14.58;51.65;100721.50;5071640;28;20474;-53
2023/01/26 08:57:25;;;;;;;7.22;4.10;;;;;;;14.54;51.60;100723.50;5072083;28;20484;-52
2023/01/26 08:59:54;;;;;;;8.82;4.80;;;;;;;14.51;51.53;100722.88;5071578;28;20048;-53
2023/01/26 09:02:22;;;;;;;6.82;3.95;;;;;;;14.46;51.43;100722.31;5071613;28;20070;-53
2023/01/26 09:04:51;;;;;;;9.52;5.00;;;;;;;14.43;51.51;100720.69;5071416;28;20052;-53
2023/01/26 09:07:20;;;;;;;7.75;4.78;;;;;;;14.42;51.42;100728.84;5071387;28;20048;-54
2023/01/26 09:09:48;;;;;;;8.95;4.70;;;;;;;14.39;51.48;100721.00;5071080;28;20041;-52
2023/01/26 09:12:16;;;;;;;9.27;4.75;;;;;;;14.36;51.32;100729.25;5071399;28;20140;-54
2023/01/26 09:14:45;;;;;;;7.90;4.72;;;;;;;14.32;51.40;100724.09;5071444;28;20052;-56
2023/01/26 09:17:13;;;;;;;8.18;4.40;;;;;;;14.29;51.37;100724.31;5071429;28;20048;-53
2023/01/26 09:19:41;;;;;;;6.28;4.28;;;;;;;14.26;51.37;100724.50;5071268;28;20048;-54
2023/01/26 09:22:11;;;;;;;7.00;4.25;;;;;;;14.20;51.33;100724.94;5071137;28;20044;-53
2023/01/26 09:24:41;;;;;;;7.68;4.55;;;;;;;14.21;51.36;100725.81;5071287;28;20430;-54
2023/01/26 09:27:09;;;;;;;7.25;4.85;;;;;;;14.18;51.41;100726.84;5071149;28;20459;-53
2023/01/26 09:29:37;;;;;;;7.32;4.75;;;;;;;14.16;51.21;100717.19;5071208;28;20037;-53
2023/01/26 09:32:05;;;;;;;8.85;4.53;;;;;;;14.13;51.24;100714.72;5071301;28;20544;-54
2023/01/26 09:34:34;;;;;;;7.47;4.30;;;;;;;14.10;51.18;100721.16;5071186;28;20060;-53
2023/01/26 09:37:02;;;;;;;7.55;5.03;;;;;;;14.07;50.91;100713.31;5071175;28;20063;-53
2023/01/26 09:39:30;;;;;;;7.07;4.70;;;;;;;14.07;51.18;100717.81;5071385;28;20060;-52
2023/01/26 09:42:15;;;;;;;7.35;4.65;;;;;;;14.03;51.00;100712.66;5071338;28;20041;-52
2023/01/26 09:44:49;;;;;;;7.75;4.65;;;;;;;14.01;51.24;100713.75;5070973;28;20044;-52
2023/01/26 09:47:29;;;;;;;7.18;4.40;;;;;;;13.98;51.07;100712.09;5071010;28;20386;-52
2023/01/26 09:50:02;;;;;;;7.15;4.35;;;;;;;13.93;51.15;100705.34;5071118;28;20128;-54
2023/01/26 09:52:32;;;;;;;;;;;;;;;13.91;50.97;100700.09;5071386;28;20044;-55
2023/01/26 09:55:04;;;;;;;8.20;4.70;;;;;;;13.90;51.08;100701.06;5071073;28;20327;-53
2023/01/26 09:57:41;;;;;;;7.90;4.50;;;;;;;13.87;50.96;100695.88;5070915;28;20056;-55
2023/01/26 10:00:18;;;;;;;7.43;4.80;;;;;;;13.84;50.98;100690.72;5070849;28;20299;-51
2023/01/26 10:03:01;;;;;;;7.63;4.70;;;;;;;13.83;51.11;100685.47;5071095;28;20098;-53
2023/01/26 10:05:37;;;;;;;8.02;4.72;;;;;;;13.79;51.04;100687.47;5070849;28;20048;-52
2023/01/26 10:08:11;;;;;;;7.88;4.80;;;;;;;13.78;50.94;100684.91;5070757;28;20052;-53
2023/01/26 10:10:46;;;;;;;7.43;4.22;;;;;;;13.75;50.81;100676.09;5070900;28;20139;-54
2023/01/26 10:13:17;;;;;;;8.93;4.70;;;;;;;13.73;50.89;100672.69;5071083;28;20163;-54
2023/01/26 10:15:49;;;;;;;7.60;4.63;;;;;;;13.72;50.97;100670.97;5070785;28;20489;-53
2023/01/26 10:18:22;;;;;;;9.07;5.00;;;;;;;13.68;50.87;100666.75;5070747;28;20052;-54
2023/01/26 10:20:53;;;;;;;6.55;4.38;;;;;;;13.67;50.75;100669.53;5071678;28;20383;-53
2023/01/26 10:23:24;;;;;;;8.23;4.82;;;;;;;13.65;50.80;100658.91;5074672;28;20052;-54
2023/01/26 10:25:54;;;;;;;8.35;4.80;;;;;;;13.64;50.96;100653.66;5074118;28;20119;-54
2023/01/26 10:28:29;;;;;;;7.43;4.65;;;;;;;13.62;50.85;100656.44;5073967;28;20087;-54
2023/01/26 10:30:57;;;;;;;7.78;4.65;;;;;;;13.59;51.01;100645.91;5074148;28;20078;-55
2023/01/26 10:33:32;;;;;;;6.95;4.43;;;;;;;13.58;51.07;100641.50;5073960;28;20052;-53
2023/01/26 10:36:01;;;;;;;7.28;4.65;;;;;;;13.56;51.01;100643.44;5073995;28;20044;-53
2023/01/26 10:38:40;;;;;;;7.35;4.93;;;;;;;13.54;51.05;100639.16;5073963;28;20374;-53
2023/01/26 10:41:23;;;;;;;7.72;4.55;;;;;;;13.49;50.94;100631.41;5074045;28;20119;-54
2023/01/26 10:43:54;;;;;;;7.82;4.60;;;;;;;13.49;51.09;100639.44;5074016;28;20044;-52
2023/01/26 10:46:41;;;;;;;9.60;5.30;;;;;;;13.48;51.04;100640.41;5073924;28;20382;-53
2023/01/26 10:49:16;;;;;;;8.20;4.68;;;;;;;13.47;51.10;100646.72;5072514;28;20054;-54
2023/01/26 10:51:46;;;;;;;8.25;4.70;;;;;;;13.45;51.14;100635.25;5073851;28;20044;-55
2023/01/26 10:54:23;;;;;;;9.55;4.93;;;;;;;13.42;51.14;100624.75;5073587;28;20040;-53
2023/01/26 10:56:53;;;;;;;9.48;5.45;;;;;;;13.42;51.09;100627.44;5073747;28;20081;-51
2023/01/26 10:59:33;;;;;;;6.75;4.60;;;;;;;13.39;51.06;100614.22;5073664;28;20051;-54
2023/01/26 11:02:17;;;;;;;6.88;4.45;;;;;;;13.39;51.04;100616.91;5073677;28;20127;-56
2023/01/26 11:05:02;;;;;;;7.65;4.72;;;;;;;13.36;50.97;100609.06;5073682;28;20131;-53
2023/01/26 11:07:34;;;;;;;8.50;5.07;;;;;;;13.32;51.01;100610.25;5073622;28;20140;-53
2023/01/26 11:10:21;;;;;;;7.90;4.97;;;;;;;13.33;51.18;100614.63;5073712;28;20140;-53
2023/01/26 11:12:50;;;;;;;7.10;4.85;;;;;;;13.31;51.11;100611.19;5073402;28;20120;-54
2023/01/26 11:15:21;;;;;;;7.65;4.97;;;;;;;13.32;51.22;100607.56;5073585;28;20577;-54
2023/01/26 11:17:57;;;;;;;7.25;5.03;;;;;;;13.29;51.36;100603.25;5073370;28;20048;-53
2023/01/26 11:20:44;;;;;;;7.68;4.80;;;;;;;13.28;50.96;100600.69;5073251;28;20044;-53
2023/01/26 11:23:22;;;;;;;9.45;5.45;;;;;;;13.25;51.35;100591.03;5073229;28;20044;-53
2023/01/26 11:26:19;;;;;;;7.88;4.30;;;;;;;13.26;51.29;100592.75;5072942;28;20105;-53
2023/01/26 11:29:01;;;;;;;6.78;4.53;;;;;;;13.23;51.08;100592.09;5071054;28;20505;-53
2023/01/26 11:31:45;;;;;;;7.65;5.03;;;;;;;13.22;51.25;100596.59;5072982;28;20093;-54
2023/01/26 11:34:28;;;;;;;7.15;4.70;;;;;;;13.19;51.31;100586.06;5072483;28;20036;-55
2023/01/26 11:37:12;;;;;;;8.68;5.50;;;;;;;13.20;51.27;100589.59;5073199;28;20059;-52
2023/01/26 11:39:47;;;;;;;7.65;5.03;;;;;;;13.17;51.18;100588.81;5073091;28;20253;-53
2023/01/26 11:42:24;;;;;;;7.28;4.60;;;;;;;13.14;51.22;100581.00;5072820;28;20407;-53
2023/01/26 11:45:20;;;;;;;8.68;5.20;;;;;;;13.14;51.28;100578.31;5072652;28;20051;-54
2023/01/26 11:48:08;;;;;;;6.65;4.80;;;;;;;13.14;51.21;100570.28;5071478;28;20055;-56
2023/01/26 11:50:44;;;;;;;8.07;5.10;;;;;;;13.13;51.13;100565.03;5072643;28;20095;-52
2023/01/26 11:53:24;;;;;;;8.18;5.25;;;;;;;13.08;51.32;100557.28;5072676;28;20051;-55
2023/01/26 11:56:01;;;;;;;8.70;5.07;;;;;;;13.09;51.36;100553.63;5072622;28;20052;-53
2023/01/26 11:58:35;;;;;;;8.10;5.18;;;;;;;13.09;51.11;100550.97;5072616;28;20040;-52
2023/01/26 12:01:09;;;;;;;9.65;5.25;;;;;;;13.07;51.11;100547.53;5072581;28;20055;-56
2023/01/26 12:03:46;;;;;;;9.00;5.55;;;;;;;13.07;51.14;100538.63;5072618;28;20072;-54
2023/01/26 12:06:18;;;;;;;8.90;5.05;;;;;;;13.05;51.24;100529.84;5072419;28;20075;-53
2023/01/26 12:08:52;;;;;;;8.95;5.25;;;;;;;13.03;51.22;100532.63;5072411;28;20105;-55
2023/01/26 12:11:25;;;;;;;8.68;5.35;;;;;;;13.04;51.38;100531.66;5072444;28;20040;-53
2023/01/26 12:14:04;;;;;;;10.18;5.68;;;;;;;13.03;51.20;100534.47;5072379;28;20048;-54
2023/01/26 12:16:41;;;;;;;8.30;5.45;;;;;;;13.01;51.32;100523.81;5072608;28;20048;-53
2023/01/26 12:19:28;;;;;;;9.10;5.28;;;;;;;12.98;51.16;100524.03;5072275;28;20044;-54
2023/01/26 12:22:05;;;;;;;8.95;5.70;;;;;;;12.98;51.22;100523.16;5072076;28;20050;-55
2023/01/26 12:24:39;;;;;;;9.73;5.40;;;;;;;12.98;51.32;100520.50;5072446;28;20047;-54
2023/01/26 12:27:42;;;;;;;8.85;5.30;;;;;;;12.98;51.43;100521.34;5071921;28;20056;-53
2023/01/26 12:30:25;;;;;;;8.02;4.78;;;;;;;13.01;51.77;100525.63;5072042;28;20414;-54
2023/01/26 12:32:53;;;;;;;8.75;5.10;;;;;;;13.05;52.17;100519.13;5071933;28;20508;-54
2023/01/26 12:35:33;;;;;;;8.50;5.05;;;;;;;13.11;52.33;100505.31;5072188;28;20040;-54